sensor_id;sensor_type;location;lat;lon;timestamp;P1;durP1;ratioP1;P2;durP2;ratioP2
27495;SDS011;14929;51.336;9.416;2022-12-18T00:01:16;17.50;;;11.40;;
27495;SDS011;14929;51.336;9.416;2022-12-18T00:03:45;11.10;;;9.52;;
27495;SDS011;14929;51.336;9.416;2022-12-18T00:06:13;14.20;;;9.13;;
27495;SDS011;14929;51.336;9.416;2022-12-18T00:08:41;13.90;;;8.40;;
27495;SDS011;14929;51.336;9.416;2022-12-18T00:11:10;9.10;;;6.90;;
27495;SDS011;14929;51.336;9.416;2022-12-18T00:13:41;13.65;;;8.93;;
27495;SDS011;14929;51.336;9.416;2022-12-18T00:16:10;11.48;;;7.32;;
27495;SDS011;14929;51.336;9.416;2022-12-18T00:18:39;11.57;;;7.78;;
27495;SDS011;14929;51.336;9.416;2022-12-18T00:21:08;10.88;;;7.90;;
27495;SDS011;14929;51.336;9.416;2022-12-18T00:23:38;13.07;;;8.15;;
27495;SDS011;14929;51.336;9.416;2022-12-18T00:26:07;11.02;;;7.70;;
27495;SDS011;14929;51.336;9.416;2022-12-18T00:28:40;20.40;;;12.13;;
27495;SDS011;14929;51.336;9.416;2022-12-18T00:31:10;16.58;;;10.20;;
27495;SDS011;14929;51.336;9.416;2022-12-18T00:33:39;13.77;;;8.70;;
27495;SDS011;14929;51.336;9.416;2022-12-18T00:36:09;13.50;;;9.43;;
27495;SDS011;14929;51.336;9.416;2022-12-18T00:38:38;13.57;;;9.00;;
27495;SDS011;14929;51.336;9.416;2022-12-18T00:41:07;8.73;;;7.18;;
27495;SDS011;14929;51.336;9.416;2022-12-18T00:43:35;9.82;;;6.75;;
27495;SDS011;14929;51.336;9.416;2022-12-18T00:46:04;9.73;;;7.35;;
27495;SDS011;14929;51.336;9.416;2022-12-18T00:48:31;13.45;;;10.05;;
27495;SDS011;14929;51.336;9.416;2022-12-18T00:50:59;13.15;;;9.18;;
27495;SDS011;14929;51.336;9.416;2022-12-18T00:53:26;13.15;;;9.52;;
27495;SDS011;14929;51.336;9.416;2022-12-18T00:55:54;10.07;;;8.90;;
27495;SDS011;14929;51.336;9.416;2022-12-18T00:58:21;11.30;;;7.82;;
27495;SDS011;14929;51.336;9.416;2022-12-18T01:00:49;16.00;;;11.13;;
27495;SDS011;14929;51.336;9.416;2022-12-18T01:03:18;10.88;;;8.88;;
27495;SDS011;14929;51.336;9.416;2022-12-18T01:05:45;13.27;;;8.80;;
27495;SDS011;14929;51.336;9.416;2022-12-18T01:08:13;15.20;;;10.27;;
27495;SDS011;14929;51.336;9.416;2022-12-18T01:10:40;13.32;;;9.07;;
27495;SDS011;14929;51.336;9.416;2022-12-18T01:13:08;22.23;;;12.98;;
27495;SDS011;14929;51.336;9.416;2022-12-18T01:15:35;11.93;;;8.77;;
27495;SDS011;14929;51.336;9.416;2022-12-18T01:18:03;10.18;;;7.20;;
27495;SDS011;14929;51.336;9.416;2022-12-18T01:20:32;13.75;;;9.52;;
27495;SDS011;14929;51.336;9.416;2022-12-18T01:22:59;12.35;;;7.97;;
27495;SDS011;14929;51.336;9.416;2022-12-18T01:25:27;6.88;;;6.00;;
27495;SDS011;14929;51.336;9.416;2022-12-18T01:27:54;8.90;;;7.53;;
27495;SDS011;14929;51.336;9.416;2022-12-18T01:30:22;9.80;;;7.65;;
27495;SDS011;14929;51.336;9.416;2022-12-18T01:32:49;13.45;;;7.60;;
27495;SDS011;14929;51.336;9.416;2022-12-18T01:35:17;13.32;;;9.55;;
27495;SDS011;14929;51.336;9.416;2022-12-18T01:37:46;11.75;;;8.48;;
27495;SDS011;14929;51.336;9.416;2022-12-18T01:40:13;12.25;;;7.85;;
27495;SDS011;14929;51.336;9.416;2022-12-18T01:42:41;8.98;;;6.03;;
27495;SDS011;14929;51.336;9.416;2022-12-18T01:45:22;12.07;;;9.18;;
27495;SDS011;14929;51.336;9.416;2022-12-18T01:47:53;8.40;;;7.05;;
27495;SDS011;14929;51.336;9.416;2022-12-18T01:50:24;11.82;;;7.25;;
27495;SDS011;14929;51.336;9.416;2022-12-18T01:52:57;10.43;;;8.52;;
27495;SDS011;14929;51.336;9.416;2022-12-18T01:55:28;11.85;;;8.63;;
27495;SDS011;14929;51.336;9.416;2022-12-18T01:57:58;16.65;;;9.95;;
27495;SDS011;14929;51.336;9.416;2022-12-18T02:00:26;11.50;;;7.60;;
27495;SDS011;14929;51.336;9.416;2022-12-18T02:02:55;11.32;;;7.25;;
27495;SDS011;14929;51.336;9.416;2022-12-18T02:05:25;10.18;;;6.05;;
27495;SDS011;14929;51.336;9.416;2022-12-18T02:08:03;9.55;;;7.70;;
27495;SDS011;14929;51.336;9.416;2022-12-18T02:10:38;9.88;;;7.88;;
27495;SDS011;14929;51.336;9.416;2022-12-18T02:13:14;9.73;;;8.25;;
27495;SDS011;14929;51.336;9.416;2022-12-18T02:15:49;11.48;;;7.43;;
27495;SDS011;14929;51.336;9.416;2022-12-18T02:18:21;10.35;;;7.22;;
27495;SDS011;14929;51.336;9.416;2022-12-18T02:20:54;10.40;;;7.20;;
27495;SDS011;14929;51.336;9.416;2022-12-18T02:23:31;10.27;;;6.72;;
27495;SDS011;14929;51.336;9.416;2022-12-18T02:26:15;11.45;;;7.10;;
27495;SDS011;14929;51.336;9.416;2022-12-18T02:28:46;11.68;;;7.88;;
27495;SDS011;14929;51.336;9.416;2022-12-18T02:31:16;10.48;;;6.28;;
27495;SDS011;14929;51.336;9.416;2022-12-18T02:33:51;14.07;;;7.93;;
27495;SDS011;14929;51.336;9.416;2022-12-18T02:36:22;8.48;;;7.28;;
27495;SDS011;14929;51.336;9.416;2022-12-18T02:38:50;11.65;;;7.93;;
27495;SDS011;14929;51.336;9.416;2022-12-18T02:41:20;16.08;;;10.73;;
27495;SDS011;14929;51.336;9.416;2022-12-18T02:43:53;13.05;;;9.00;;
27495;SDS011;14929;51.336;9.416;2022-12-18T02:46:31;10.27;;;6.72;;
27495;SDS011;14929;51.336;9.416;2022-12-18T02:49:09;12.70;;;8.23;;
27495;SDS011;14929;51.336;9.416;2022-12-18T02:51:48;11.73;;;7.93;;
27495;SDS011;14929;51.336;9.416;2022-12-18T02:54:21;10.00;;;7.40;;
27495;SDS011;14929;51.336;9.416;2022-12-18T02:57:03;12.32;;;7.90;;
27495;SDS011;14929;51.336;9.416;2022-12-18T02:59:38;8.93;;;6.60;;
27495;SDS011;14929;51.336;9.416;2022-12-18T03:02:14;10.55;;;7.25;;
27495;SDS011;14929;51.336;9.416;2022-12-18T03:04:47;9.32;;;6.68;;
27495;SDS011;14929;51.336;9.416;2022-12-18T03:07:20;8.50;;;7.57;;
27495;SDS011;14929;51.336;9.416;2022-12-18T03:10:09;10.95;;;6.18;;
27495;SDS011;14929;51.336;9.416;2022-12-18T03:12:41;8.32;;;6.38;;
27495;SDS011;14929;51.336;9.416;2022-12-18T03:15:14;6.93;;;5.65;;
27495;SDS011;14929;51.336;9.416;2022-12-18T03:17:46;8.40;;;7.28;;
27495;SDS011;14929;51.336;9.416;2022-12-18T03:20:18;11.35;;;7.13;;
27495;SDS011;14929;51.336;9.416;2022-12-18T03:22:50;10.18;;;6.50;;
27495;SDS011;14929;51.336;9.416;2022-12-18T03:25:21;13.45;;;8.60;;
27495;SDS011;14929;51.336;9.416;2022-12-18T03:27:51;12.45;;;8.35;;
27495;SDS011;14929;51.336;9.416;2022-12-18T03:30:22;12.18;;;9.13;;
27495;SDS011;14929;51.336;9.416;2022-12-18T03:32:51;13.35;;;9.35;;
27495;SDS011;14929;51.336;9.416;2022-12-18T03:35:24;17.63;;;10.88;;
27495;SDS011;14929;51.336;9.416;2022-12-18T03:37:56;16.48;;;9.25;;
27495;SDS011;14929;51.336;9.416;2022-12-18T03:40:29;12.57;;;9.00;;
27495;SDS011;14929;51.336;9.416;2022-12-18T03:43:03;12.57;;;9.95;;
27495;SDS011;14929;51.336;9.416;2022-12-18T03:45:36;13.82;;;9.68;;
27495;SDS011;14929;51.336;9.416;2022-12-18T03:48:07;9.32;;;7.13;;
27495;SDS011;14929;51.336;9.416;2022-12-18T03:50:41;9.52;;;7.38;;
27495;SDS011;14929;51.336;9.416;2022-12-18T03:53:16;8.80;;;7.65;;
27495;SDS011;14929;51.336;9.416;2022-12-18T03:55:50;14.00;;;9.55;;
27495;SDS011;14929;51.336;9.416;2022-12-18T03:58:20;11.55;;;7.13;;
27495;SDS011;14929;51.336;9.416;2022-12-18T04:00:51;15.50;;;10.50;;
27495;SDS011;14929;51.336;9.416;2022-12-18T04:03:21;10.77;;;7.57;;
27495;SDS011;14929;51.336;9.416;2022-12-18T04:05:50;19.35;;;12.88;;
27495;SDS011;14929;51.336;9.416;2022-12-18T04:08:18;16.80;;;9.10;;
27495;SDS011;14929;51.336;9.416;2022-12-18T04:10:46;12.82;;;9.20;;
27495;SDS011;14929;51.336;9.416;2022-12-18T04:13:22;11.48;;;8.35;;
27495;SDS011;14929;51.336;9.416;2022-12-18T04:15:51;11.27;;;9.07;;
27495;SDS011;14929;51.336;9.416;2022-12-18T04:18:18;19.25;;;11.10;;
27495;SDS011;14929;51.336;9.416;2022-12-18T04:20:46;16.80;;;9.30;;
27495;SDS011;14929;51.336;9.416;2022-12-18T04:23:13;14.07;;;9.40;;
27495;SDS011;14929;51.336;9.416;2022-12-18T04:25:41;14.18;;;10.13;;
27495;SDS011;14929;51.336;9.416;2022-12-18T04:28:09;15.45;;;12.02;;
27495;SDS011;14929;51.336;9.416;2022-12-18T04:30:37;12.43;;;7.65;;
27495;SDS011;14929;51.336;9.416;2022-12-18T04:35:47;14.20;;;10.38;;
27495;SDS011;14929;51.336;9.416;2022-12-18T04:38:15;15.40;;;8.88;;
27495;SDS011;14929;51.336;9.416;2022-12-18T04:40:42;16.17;;;9.13;;
27495;SDS011;14929;51.336;9.416;2022-12-18T04:43:10;17.05;;;9.38;;
27495;SDS011;14929;51.336;9.416;2022-12-18T04:45:39;15.10;;;8.25;;
27495;SDS011;14929;51.336;9.416;2022-12-18T04:48:06;10.98;;;8.68;;
27495;SDS011;14929;51.336;9.416;2022-12-18T04:50:34;16.25;;;10.23;;
27495;SDS011;14929;51.336;9.416;2022-12-18T04:53:01;13.13;;;9.20;;
27495;SDS011;14929;51.336;9.416;2022-12-18T04:55:28;10.70;;;8.60;;
27495;SDS011;14929;51.336;9.416;2022-12-18T04:57:56;10.20;;;7.28;;
27495;SDS011;14929;51.336;9.416;2022-12-18T05:00:23;20.33;;;10.65;;
27495;SDS011;14929;51.336;9.416;2022-12-18T05:02:52;21.13;;;11.20;;
27495;SDS011;14929;51.336;9.416;2022-12-18T05:05:20;20.00;;;10.57;;
27495;SDS011;14929;51.336;9.416;2022-12-18T05:07:47;14.88;;;11.15;;
27495;SDS011;14929;51.336;9.416;2022-12-18T05:10:14;15.27;;;8.98;;
27495;SDS011;14929;51.336;9.416;2022-12-18T05:12:42;14.25;;;10.00;;
27495;SDS011;14929;51.336;9.416;2022-12-18T05:15:24;17.52;;;10.98;;
27495;SDS011;14929;51.336;9.416;2022-12-18T05:17:54;14.63;;;10.93;;
27495;SDS011;14929;51.336;9.416;2022-12-18T05:20:22;11.73;;;8.30;;
27495;SDS011;14929;51.336;9.416;2022-12-18T05:22:50;18.17;;;9.63;;
27495;SDS011;14929;51.336;9.416;2022-12-18T05:25:18;10.40;;;7.90;;
27495;SDS011;14929;51.336;9.416;2022-12-18T05:27:46;12.27;;;7.70;;
27495;SDS011;14929;51.336;9.416;2022-12-18T05:30:14;8.82;;;6.65;;
27495;SDS011;14929;51.336;9.416;2022-12-18T05:32:41;8.10;;;6.13;;
27495;SDS011;14929;51.336;9.416;2022-12-18T05:35:10;15.20;;;9.85;;
27495;SDS011;14929;51.336;9.416;2022-12-18T05:37:38;10.77;;;7.05;;
27495;SDS011;14929;51.336;9.416;2022-12-18T05:40:06;10.65;;;8.30;;
27495;SDS011;14929;51.336;9.416;2022-12-18T05:42:35;10.88;;;9.05;;
27495;SDS011;14929;51.336;9.416;2022-12-18T05:45:03;6.43;;;5.68;;
27495;SDS011;14929;51.336;9.416;2022-12-18T05:47:31;8.98;;;6.45;;
27495;SDS011;14929;51.336;9.416;2022-12-18T05:49:59;12.68;;;6.55;;
27495;SDS011;14929;51.336;9.416;2022-12-18T05:52:27;6.45;;;4.75;;
27495;SDS011;14929;51.336;9.416;2022-12-18T05:54:58;9.75;;;7.05;;
27495;SDS011;14929;51.336;9.416;2022-12-18T05:57:25;9.55;;;6.53;;
27495;SDS011;14929;51.336;9.416;2022-12-18T05:59:53;10.85;;;6.97;;
27495;SDS011;14929;51.336;9.416;2022-12-18T06:02:20;7.05;;;6.30;;
27495;SDS011;14929;51.336;9.416;2022-12-18T06:04:48;11.75;;;7.75;;
27495;SDS011;14929;51.336;9.416;2022-12-18T06:07:15;9.35;;;7.88;;
27495;SDS011;14929;51.336;9.416;2022-12-18T06:09:44;13.98;;;9.00;;
27495;SDS011;14929;51.336;9.416;2022-12-18T06:12:11;11.25;;;8.40;;
27495;SDS011;14929;51.336;9.416;2022-12-18T06:14:39;14.90;;;10.27;;
27495;SDS011;14929;51.336;9.416;2022-12-18T06:17:06;13.55;;;9.55;;
27495;SDS011;14929;51.336;9.416;2022-12-18T06:19:34;15.15;;;10.10;;
27495;SDS011;14929;51.336;9.416;2022-12-18T06:22:01;12.15;;;8.40;;
27495;SDS011;14929;51.336;9.416;2022-12-18T06:24:29;10.43;;;8.32;;
27495;SDS011;14929;51.336;9.416;2022-12-18T06:26:59;11.82;;;8.35;;
27495;SDS011;14929;51.336;9.416;2022-12-18T06:29:27;12.32;;;8.02;;
27495;SDS011;14929;51.336;9.416;2022-12-18T06:31:54;9.27;;;5.68;;
27495;SDS011;14929;51.336;9.416;2022-12-18T06:34:22;16.40;;;10.70;;
27495;SDS011;14929;51.336;9.416;2022-12-18T06:36:49;9.75;;;7.10;;
27495;SDS011;14929;51.336;9.416;2022-12-18T06:39:17;10.18;;;7.35;;
27495;SDS011;14929;51.336;9.416;2022-12-18T06:41:44;9.18;;;6.13;;
27495;SDS011;14929;51.336;9.416;2022-12-18T06:44:13;6.20;;;5.55;;
27495;SDS011;14929;51.336;9.416;2022-12-18T06:46:41;12.90;;;9.23;;
27495;SDS011;14929;51.336;9.416;2022-12-18T06:49:08;10.52;;;9.02;;
27495;SDS011;14929;51.336;9.416;2022-12-18T06:51:36;11.00;;;8.40;;
27495;SDS011;14929;51.336;9.416;2022-12-18T06:54:04;7.63;;;5.82;;
27495;SDS011;14929;51.336;9.416;2022-12-18T06:56:31;10.00;;;6.32;;
27495;SDS011;14929;51.336;9.416;2022-12-18T06:58:59;10.05;;;7.50;;
27495;SDS011;14929;51.336;9.416;2022-12-18T07:01:28;8.45;;;6.45;;
27495;SDS011;14929;51.336;9.416;2022-12-18T07:03:56;8.10;;;6.85;;
27495;SDS011;14929;51.336;9.416;2022-12-18T07:06:24;9.07;;;7.13;;
27495;SDS011;14929;51.336;9.416;2022-12-18T07:08:53;10.40;;;8.00;;
27495;SDS011;14929;51.336;9.416;2022-12-18T07:11:21;12.20;;;7.60;;
27495;SDS011;14929;51.336;9.416;2022-12-18T07:13:48;12.15;;;6.70;;
27495;SDS011;14929;51.336;9.416;2022-12-18T07:16:16;8.25;;;5.88;;
27495;SDS011;14929;51.336;9.416;2022-12-18T07:18:47;11.25;;;7.18;;
27495;SDS011;14929;51.336;9.416;2022-12-18T07:21:15;10.27;;;7.95;;
27495;SDS011;14929;51.336;9.416;2022-12-18T07:23:45;13.15;;;8.48;;
27495;SDS011;14929;51.336;9.416;2022-12-18T07:26:13;11.05;;;9.23;;
27495;SDS011;14929;51.336;9.416;2022-12-18T07:28:42;15.80;;;10.30;;
27495;SDS011;14929;51.336;9.416;2022-12-18T07:31:11;21.02;;;13.57;;
27495;SDS011;14929;51.336;9.416;2022-12-18T07:33:40;22.58;;;13.57;;
27495;SDS011;14929;51.336;9.416;2022-12-18T07:36:12;15.05;;;11.00;;
27495;SDS011;14929;51.336;9.416;2022-12-18T07:38:40;14.90;;;9.73;;
27495;SDS011;14929;51.336;9.416;2022-12-18T07:41:08;15.93;;;10.85;;
27495;SDS011;14929;51.336;9.416;2022-12-18T07:43:38;15.43;;;11.40;;
27495;SDS011;14929;51.336;9.416;2022-12-18T07:46:07;15.60;;;9.65;;
27495;SDS011;14929;51.336;9.416;2022-12-18T07:48:35;11.82;;;8.80;;
27495;SDS011;14929;51.336;9.416;2022-12-18T07:51:04;12.80;;;8.25;;
27495;SDS011;14929;51.336;9.416;2022-12-18T07:53:34;10.38;;;7.93;;
27495;SDS011;14929;51.336;9.416;2022-12-18T07:56:04;14.60;;;9.00;;
27495;SDS011;14929;51.336;9.416;2022-12-18T07:58:34;17.65;;;10.15;;
27495;SDS011;14929;51.336;9.416;2022-12-18T08:01:02;12.30;;;7.75;;
27495;SDS011;14929;51.336;9.416;2022-12-18T08:03:31;12.75;;;9.45;;
27495;SDS011;14929;51.336;9.416;2022-12-18T08:05:59;9.82;;;6.57;;
27495;SDS011;14929;51.336;9.416;2022-12-18T08:08:27;12.65;;;7.55;;
27495;SDS011;14929;51.336;9.416;2022-12-18T08:10:57;12.07;;;7.38;;
27495;SDS011;14929;51.336;9.416;2022-12-18T08:13:25;9.63;;;7.55;;
27495;SDS011;14929;51.336;9.416;2022-12-18T08:15:56;13.63;;;9.48;;
27495;SDS011;14929;51.336;9.416;2022-12-18T08:18:25;20.45;;;11.00;;
27495;SDS011;14929;51.336;9.416;2022-12-18T08:20:54;15.48;;;10.13;;
27495;SDS011;14929;51.336;9.416;2022-12-18T08:23:21;20.17;;;12.95;;
27495;SDS011;14929;51.336;9.416;2022-12-18T08:25:49;16.92;;;10.82;;
27495;SDS011;14929;51.336;9.416;2022-12-18T08:28:18;18.17;;;12.18;;
27495;SDS011;14929;51.336;9.416;2022-12-18T08:30:45;18.42;;;11.15;;
27495;SDS011;14929;51.336;9.416;2022-12-18T08:33:13;15.55;;;10.35;;
27495;SDS011;14929;51.336;9.416;2022-12-18T08:35:40;19.83;;;11.93;;
27495;SDS011;14929;51.336;9.416;2022-12-18T08:38:08;13.38;;;9.55;;
27495;SDS011;14929;51.336;9.416;2022-12-18T08:40:36;12.68;;;8.93;;
27495;SDS011;14929;51.336;9.416;2022-12-18T08:43:03;16.17;;;8.85;;
27495;SDS011;14929;51.336;9.416;2022-12-18T08:45:49;12.57;;;9.57;;
27495;SDS011;14929;51.336;9.416;2022-12-18T08:48:17;19.42;;;12.95;;
27495;SDS011;14929;51.336;9.416;2022-12-18T08:50:48;19.05;;;11.77;;
27495;SDS011;14929;51.336;9.416;2022-12-18T08:53:21;13.10;;;9.60;;
27495;SDS011;14929;51.336;9.416;2022-12-18T08:55:51;22.95;;;14.25;;
27495;SDS011;14929;51.336;9.416;2022-12-18T08:58:18;18.45;;;11.98;;
27495;SDS011;14929;51.336;9.416;2022-12-18T09:00:46;17.05;;;11.73;;
27495;SDS011;14929;51.336;9.416;2022-12-18T09:03:16;18.95;;;13.95;;
27495;SDS011;14929;51.336;9.416;2022-12-18T09:05:45;21.33;;;13.00;;
27495;SDS011;14929;51.336;9.416;2022-12-18T09:08:12;17.77;;;11.52;;
27495;SDS011;14929;51.336;9.416;2022-12-18T09:10:43;12.65;;;9.82;;
27495;SDS011;14929;51.336;9.416;2022-12-18T09:13:12;14.65;;;9.75;;
27495;SDS011;14929;51.336;9.416;2022-12-18T09:15:40;18.55;;;12.50;;
27495;SDS011;14929;51.336;9.416;2022-12-18T09:18:08;20.45;;;13.90;;
27495;SDS011;14929;51.336;9.416;2022-12-18T09:20:38;12.68;;;9.43;;
27495;SDS011;14929;51.336;9.416;2022-12-18T09:23:06;18.35;;;11.75;;
27495;SDS011;14929;51.336;9.416;2022-12-18T09:25:34;18.02;;;11.82;;
27495;SDS011;14929;51.336;9.416;2022-12-18T09:28:03;18.25;;;12.30;;
27495;SDS011;14929;51.336;9.416;2022-12-18T09:30:36;16.88;;;11.60;;
27495;SDS011;14929;51.336;9.416;2022-12-18T09:33:04;19.42;;;12.95;;
27495;SDS011;14929;51.336;9.416;2022-12-18T09:35:32;20.42;;;13.32;;
27495;SDS011;14929;51.336;9.416;2022-12-18T09:38:03;19.95;;;13.48;;
27495;SDS011;14929;51.336;9.416;2022-12-18T09:40:32;20.33;;;13.07;;
27495;SDS011;14929;51.336;9.416;2022-12-18T09:43:03;21.00;;;14.00;;
27495;SDS011;14929;51.336;9.416;2022-12-18T09:45:31;16.33;;;12.02;;
27495;SDS011;14929;51.336;9.416;2022-12-18T09:48:05;20.17;;;12.52;;
27495;SDS011;14929;51.336;9.416;2022-12-18T09:50:37;21.35;;;12.07;;
27495;SDS011;14929;51.336;9.416;2022-12-18T09:53:09;22.27;;;14.25;;
27495;SDS011;14929;51.336;9.416;2022-12-18T09:55:41;19.15;;;13.45;;
27495;SDS011;14929;51.336;9.416;2022-12-18T09:58:13;19.30;;;14.02;;
27495;SDS011;14929;51.336;9.416;2022-12-18T10:00:43;19.40;;;13.75;;
27495;SDS011;14929;51.336;9.416;2022-12-18T10:03:11;18.38;;;13.15;;
27495;SDS011;14929;51.336;9.416;2022-12-18T10:05:41;16.63;;;11.63;;
27495;SDS011;14929;51.336;9.416;2022-12-18T10:08:16;19.13;;;14.82;;
27495;SDS011;14929;51.336;9.416;2022-12-18T10:10:49;19.15;;;13.15;;
27495;SDS011;14929;51.336;9.416;2022-12-18T10:13:21;18.75;;;13.07;;
27495;SDS011;14929;51.336;9.416;2022-12-18T10:15:55;25.13;;;16.42;;
27495;SDS011;14929;51.336;9.416;2022-12-18T10:18:34;19.75;;;13.60;;
27495;SDS011;14929;51.336;9.416;2022-12-18T10:21:23;20.92;;;14.48;;
27495;SDS011;14929;51.336;9.416;2022-12-18T10:23:58;19.55;;;13.95;;
27495;SDS011;14929;51.336;9.416;2022-12-18T10:26:34;17.98;;;11.40;;
27495;SDS011;14929;51.336;9.416;2022-12-18T10:29:04;16.88;;;12.75;;
27495;SDS011;14929;51.336;9.416;2022-12-18T10:31:36;24.42;;;14.73;;
27495;SDS011;14929;51.336;9.416;2022-12-18T10:34:03;17.85;;;12.32;;
27495;SDS011;14929;51.336;9.416;2022-12-18T10:36:34;23.70;;;15.05;;
27495;SDS011;14929;51.336;9.416;2022-12-18T10:39:15;18.38;;;13.43;;
27495;SDS011;14929;51.336;9.416;2022-12-18T10:41:50;17.83;;;11.77;;
27495;SDS011;14929;51.336;9.416;2022-12-18T10:44:19;18.75;;;14.18;;
27495;SDS011;14929;51.336;9.416;2022-12-18T10:46:49;20.38;;;14.32;;
27495;SDS011;14929;51.336;9.416;2022-12-18T10:49:25;15.48;;;13.05;;
27495;SDS011;14929;51.336;9.416;2022-12-18T10:52:03;19.20;;;13.50;;
27495;SDS011;14929;51.336;9.416;2022-12-18T10:54:35;21.30;;;14.10;;
27495;SDS011;14929;51.336;9.416;2022-12-18T10:57:16;22.75;;;15.02;;
27495;SDS011;14929;51.336;9.416;2022-12-18T10:59:56;20.75;;;15.15;;
27495;SDS011;14929;51.336;9.416;2022-12-18T11:02:45;22.90;;;14.90;;
27495;SDS011;14929;51.336;9.416;2022-12-18T11:05:22;16.73;;;13.35;;
27495;SDS011;14929;51.336;9.416;2022-12-18T11:07:53;24.00;;;14.38;;
27495;SDS011;14929;51.336;9.416;2022-12-18T11:10:23;20.58;;;15.25;;
27495;SDS011;14929;51.336;9.416;2022-12-18T11:12:55;16.42;;;12.43;;
27495;SDS011;14929;51.336;9.416;2022-12-18T11:15:34;21.10;;;14.65;;
27495;SDS011;14929;51.336;9.416;2022-12-18T11:18:01;19.25;;;14.02;;
27495;SDS011;14929;51.336;9.416;2022-12-18T11:20:30;22.45;;;15.60;;
27495;SDS011;14929;51.336;9.416;2022-12-18T11:23:00;24.10;;;14.52;;
27495;SDS011;14929;51.336;9.416;2022-12-18T11:25:31;23.73;;;14.40;;
27495;SDS011;14929;51.336;9.416;2022-12-18T11:28:00;16.92;;;13.02;;
27495;SDS011;14929;51.336;9.416;2022-12-18T11:30:29;15.57;;;12.35;;
27495;SDS011;14929;51.336;9.416;2022-12-18T11:33:00;20.27;;;13.90;;
27495;SDS011;14929;51.336;9.416;2022-12-18T11:35:35;16.13;;;13.07;;
27495;SDS011;14929;51.336;9.416;2022-12-18T11:38:10;21.20;;;14.25;;
27495;SDS011;14929;51.336;9.416;2022-12-18T11:40:51;16.75;;;12.75;;
27495;SDS011;14929;51.336;9.416;2022-12-18T11:43:22;19.35;;;13.77;;
27495;SDS011;14929;51.336;9.416;2022-12-18T11:45:54;21.15;;;14.57;;
27495;SDS011;14929;51.336;9.416;2022-12-18T11:48:26;18.92;;;12.57;;
27495;SDS011;14929;51.336;9.416;2022-12-18T11:50:56;19.27;;;14.55;;
27495;SDS011;14929;51.336;9.416;2022-12-18T11:53:25;18.83;;;14.23;;
27495;SDS011;14929;51.336;9.416;2022-12-18T11:55:59;18.90;;;14.68;;
27495;SDS011;14929;51.336;9.416;2022-12-18T12:01:23;31.70;;;28.00;;
27495;SDS011;14929;51.336;9.416;2022-12-18T12:04:06;25.00;;;22.48;;
27495;SDS011;14929;51.336;9.416;2022-12-18T12:06:59;24.33;;;21.88;;
27495;SDS011;14929;51.336;9.416;2022-12-18T12:09:32;23.20;;;16.30;;
27495;SDS011;14929;51.336;9.416;2022-12-18T12:12:13;20.30;;;17.13;;
27495;SDS011;14929;51.336;9.416;2022-12-18T12:14:54;21.52;;;14.13;;
27495;SDS011;14929;51.336;9.416;2022-12-18T12:17:29;16.23;;;12.75;;
27495;SDS011;14929;51.336;9.416;2022-12-18T12:20:02;20.40;;;14.52;;
27495;SDS011;14929;51.336;9.416;2022-12-18T12:22:37;16.00;;;11.95;;
27495;SDS011;14929;51.336;9.416;2022-12-18T12:25:15;18.30;;;13.65;;
27495;SDS011;14929;51.336;9.416;2022-12-18T12:27:58;16.25;;;13.30;;
27495;SDS011;14929;51.336;9.416;2022-12-18T12:30:38;21.35;;;14.75;;
27495;SDS011;14929;51.336;9.416;2022-12-18T12:33:19;16.05;;;11.57;;
27495;SDS011;14929;51.336;9.416;2022-12-18T12:35:57;18.45;;;11.73;;
27495;SDS011;14929;51.336;9.416;2022-12-18T12:38:31;16.55;;;12.88;;
27495;SDS011;14929;51.336;9.416;2022-12-18T12:41:04;16.17;;;11.40;;
27495;SDS011;14929;51.336;9.416;2022-12-18T12:43:55;15.50;;;11.25;;
27495;SDS011;14929;51.336;9.416;2022-12-18T12:46:24;14.73;;;10.95;;
27495;SDS011;14929;51.336;9.416;2022-12-18T12:48:52;13.02;;;9.90;;
27495;SDS011;14929;51.336;9.416;2022-12-18T12:51:23;14.52;;;10.55;;
27495;SDS011;14929;51.336;9.416;2022-12-18T12:53:53;13.27;;;9.43;;
27495;SDS011;14929;51.336;9.416;2022-12-18T12:56:22;18.85;;;11.30;;
27495;SDS011;14929;51.336;9.416;2022-12-18T12:59:00;14.07;;;9.65;;
27495;SDS011;14929;51.336;9.416;2022-12-18T13:01:35;10.38;;;8.23;;
27495;SDS011;14929;51.336;9.416;2022-12-18T13:04:14;12.80;;;9.65;;
27495;SDS011;14929;51.336;9.416;2022-12-18T13:06:48;14.27;;;9.82;;
27495;SDS011;14929;51.336;9.416;2022-12-18T13:09:20;16.23;;;9.88;;
27495;SDS011;14929;51.336;9.416;2022-12-18T13:11:48;14.27;;;9.40;;
27495;SDS011;14929;51.336;9.416;2022-12-18T13:14:35;12.40;;;9.63;;
27495;SDS011;14929;51.336;9.416;2022-12-18T13:17:14;11.85;;;9.40;;
27495;SDS011;14929;51.336;9.416;2022-12-18T13:19:49;11.48;;;8.68;;
27495;SDS011;14929;51.336;9.416;2022-12-18T13:22:21;12.15;;;8.65;;
27495;SDS011;14929;51.336;9.416;2022-12-18T13:24:50;12.57;;;8.55;;
27495;SDS011;14929;51.336;9.416;2022-12-18T13:30:46;8.95;;;6.70;;
27495;SDS011;14929;51.336;9.416;2022-12-18T13:33:30;9.38;;;6.45;;
27495;SDS011;14929;51.336;9.416;2022-12-18T13:36:12;11.10;;;6.78;;
27495;SDS011;14929;51.336;9.416;2022-12-18T13:38:43;8.15;;;7.03;;
27495;SDS011;14929;51.336;9.416;2022-12-18T13:41:21;12.57;;;7.60;;
27495;SDS011;14929;51.336;9.416;2022-12-18T13:43:51;8.50;;;6.82;;
27495;SDS011;14929;51.336;9.416;2022-12-18T13:46:27;7.22;;;6.22;;
27495;SDS011;14929;51.336;9.416;2022-12-18T13:48:57;7.43;;;5.75;;
27495;SDS011;14929;51.336;9.416;2022-12-18T13:51:26;7.15;;;5.55;;
27495;SDS011;14929;51.336;9.416;2022-12-18T13:53:56;9.40;;;6.13;;
27495;SDS011;14929;51.336;9.416;2022-12-18T13:56:26;7.82;;;6.40;;
27495;SDS011;14929;51.336;9.416;2022-12-18T13:59:14;8.23;;;6.15;;
27495;SDS011;14929;51.336;9.416;2022-12-18T14:01:47;6.18;;;5.00;;
27495;SDS011;14929;51.336;9.416;2022-12-18T14:04:20;8.77;;;5.63;;
27495;SDS011;14929;51.336;9.416;2022-12-18T14:06:55;8.15;;;6.13;;
27495;SDS011;14929;51.336;9.416;2022-12-18T14:09:26;7.57;;;5.40;;
27495;SDS011;14929;51.336;9.416;2022-12-18T14:11:55;8.93;;;6.55;;
27495;SDS011;14929;51.336;9.416;2022-12-18T14:14:37;8.52;;;6.78;;
27495;SDS011;14929;51.336;9.416;2022-12-18T14:17:11;8.25;;;6.43;;
27495;SDS011;14929;51.336;9.416;2022-12-18T14:19:41;7.28;;;5.40;;
27495;SDS011;14929;51.336;9.416;2022-12-18T14:22:14;9.25;;;6.35;;
27495;SDS011;14929;51.336;9.416;2022-12-18T14:24:43;8.77;;;6.03;;
27495;SDS011;14929;51.336;9.416;2022-12-18T14:27:13;8.32;;;6.35;;
27495;SDS011;14929;51.336;9.416;2022-12-18T14:29:49;6.38;;;5.75;;
27495;SDS011;14929;51.336;9.416;2022-12-18T14:32:18;7.72;;;5.82;;
27495;SDS011;14929;51.336;9.416;2022-12-18T14:34:48;7.55;;;6.40;;
27495;SDS011;14929;51.336;9.416;2022-12-18T14:37:17;5.82;;;4.95;;
27495;SDS011;14929;51.336;9.416;2022-12-18T14:39:57;6.10;;;5.40;;
27495;SDS011;14929;51.336;9.416;2022-12-18T14:42:27;8.00;;;5.95;;
27495;SDS011;14929;51.336;9.416;2022-12-18T14:48:13;7.25;;;5.15;;
27495;SDS011;14929;51.336;9.416;2022-12-18T14:50:44;8.43;;;5.65;;
27495;SDS011;14929;51.336;9.416;2022-12-18T14:53:20;9.45;;;5.80;;
27495;SDS011;14929;51.336;9.416;2022-12-18T14:55:54;7.10;;;5.38;;
27495;SDS011;14929;51.336;9.416;2022-12-18T14:58:21;6.57;;;5.63;;
27495;SDS011;14929;51.336;9.416;2022-12-18T15:00:49;11.13;;;6.93;;
27495;SDS011;14929;51.336;9.416;2022-12-18T15:03:19;8.60;;;6.05;;
27495;SDS011;14929;51.336;9.416;2022-12-18T15:05:47;9.30;;;6.45;;
27495;SDS011;14929;51.336;9.416;2022-12-18T15:11:22;8.25;;;6.43;;